sensor_id;sensor_type;location;lat;lon;timestamp;P1;durP1;ratioP1;P2;durP2;ratioP2
47219;SDS011;32961;51.936;4.788;2023-03-01T00:01:37;21.45;;;13.10;;
47219;SDS011;32961;51.936;4.788;2023-03-01T00:04:05;22.95;;;13.63;;
47219;SDS011;32961;51.936;4.788;2023-03-01T00:06:33;19.08;;;12.98;;
47219;SDS011;32961;51.936;4.788;2023-03-01T00:09:00;22.83;;;13.75;;
47219;SDS011;32961;51.936;4.788;2023-03-01T00:11:29;22.58;;;12.73;;
47219;SDS011;32961;51.936;4.788;2023-03-01T00:14:00;19.05;;;12.27;;
47219;SDS011;32961;51.936;4.788;2023-03-01T00:16:31;16.87;;;10.33;;
47219;SDS011;32961;51.936;4.788;2023-03-01T00:19:01;29.27;;;13.70;;
47219;SDS011;32961;51.936;4.788;2023-03-01T00:21:29;21.38;;;13.68;;
47219;SDS011;32961;51.936;4.788;2023-03-01T00:23:57;22.02;;;14.27;;
47219;SDS011;32961;51.936;4.788;2023-03-01T00:26:25;25.95;;;14.35;;
47219;SDS011;32961;51.936;4.788;2023-03-01T00:28:54;25.42;;;14.27;;
47219;SDS011;32961;51.936;4.788;2023-03-01T00:31:26;22.33;;;13.27;;
47219;SDS011;32961;51.936;4.788;2023-03-01T00:33:56;24.67;;;13.98;;
47219;SDS011;32961;51.936;4.788;2023-03-01T00:36:25;19.95;;;14.15;;
47219;SDS011;32961;51.936;4.788;2023-03-01T00:38:59;23.83;;;14.65;;
47219;SDS011;32961;51.936;4.788;2023-03-01T00:41:27;25.55;;;15.20;;
47219;SDS011;32961;51.936;4.788;2023-03-01T00:43:55;21.92;;;15.70;;
47219;SDS011;32961;51.936;4.788;2023-03-01T00:46:25;19.92;;;14.45;;
47219;SDS011;32961;51.936;4.788;2023-03-01T00:48:56;24.33;;;15.43;;
47219;SDS011;32961;51.936;4.788;2023-03-01T00:51:25;26.33;;;15.13;;
47219;SDS011;32961;51.936;4.788;2023-03-01T00:53:54;20.75;;;14.13;;
47219;SDS011;32961;51.936;4.788;2023-03-01T00:56:24;22.75;;;14.25;;
47219;SDS011;32961;51.936;4.788;2023-03-01T00:58:52;18.73;;;13.48;;
47219;SDS011;32961;51.936;4.788;2023-03-01T01:01:21;21.65;;;14.20;;
47219;SDS011;32961;51.936;4.788;2023-03-01T01:03:52;20.90;;;14.05;;
47219;SDS011;32961;51.936;4.788;2023-03-01T01:06:21;21.27;;;14.35;;
47219;SDS011;32961;51.936;4.788;2023-03-01T01:08:51;23.15;;;15.00;;
47219;SDS011;32961;51.936;4.788;2023-03-01T01:11:20;25.35;;;15.43;;
47219;SDS011;32961;51.936;4.788;2023-03-01T01:13:49;20.67;;;13.68;;
47219;SDS011;32961;51.936;4.788;2023-03-01T01:16:17;22.65;;;14.13;;
47219;SDS011;32961;51.936;4.788;2023-03-01T01:18:47;21.75;;;15.13;;
47219;SDS011;32961;51.936;4.788;2023-03-01T01:21:18;24.75;;;15.23;;
47219;SDS011;32961;51.936;4.788;2023-03-01T01:23:47;21.08;;;14.65;;
47219;SDS011;32961;51.936;4.788;2023-03-01T01:26:16;24.73;;;15.48;;
47219;SDS011;32961;51.936;4.788;2023-03-01T01:28:46;22.50;;;14.85;;
47219;SDS011;32961;51.936;4.788;2023-03-01T01:31:14;24.77;;;15.15;;
47219;SDS011;32961;51.936;4.788;2023-03-01T01:33:42;25.30;;;15.80;;
47219;SDS011;32961;51.936;4.788;2023-03-01T01:36:10;26.58;;;16.02;;
47219;SDS011;32961;51.936;4.788;2023-03-01T01:38:40;24.05;;;14.35;;
47219;SDS011;32961;51.936;4.788;2023-03-01T01:41:08;24.08;;;15.13;;
47219;SDS011;32961;51.936;4.788;2023-03-01T01:43:39;25.88;;;15.48;;
47219;SDS011;32961;51.936;4.788;2023-03-01T01:46:10;27.27;;;15.00;;
47219;SDS011;32961;51.936;4.788;2023-03-01T01:48:48;30.20;;;15.02;;
47219;SDS011;32961;51.936;4.788;2023-03-01T01:51:20;23.27;;;15.00;;
47219;SDS011;32961;51.936;4.788;2023-03-01T01:53:53;25.35;;;16.25;;
47219;SDS011;32961;51.936;4.788;2023-03-01T01:56:24;22.65;;;15.70;;
47219;SDS011;32961;51.936;4.788;2023-03-01T01:58:56;25.40;;;16.05;;
47219;SDS011;32961;51.936;4.788;2023-03-01T02:01:24;27.00;;;17.25;;
47219;SDS011;32961;51.936;4.788;2023-03-01T02:03:52;28.85;;;17.20;;
47219;SDS011;32961;51.936;4.788;2023-03-01T02:06:21;26.42;;;16.00;;
47219;SDS011;32961;51.936;4.788;2023-03-01T02:08:57;29.50;;;17.08;;
47219;SDS011;32961;51.936;4.788;2023-03-01T02:11:29;33.17;;;19.05;;
47219;SDS011;32961;51.936;4.788;2023-03-01T02:13:58;31.33;;;18.42;;
47219;SDS011;32961;51.936;4.788;2023-03-01T02:16:26;28.00;;;18.13;;
47219;SDS011;32961;51.936;4.788;2023-03-01T02:18:55;28.38;;;17.95;;
47219;SDS011;32961;51.936;4.788;2023-03-01T02:21:28;33.10;;;19.60;;
47219;SDS011;32961;51.936;4.788;2023-03-01T02:24:07;30.17;;;19.45;;
47219;SDS011;32961;51.936;4.788;2023-03-01T02:26:55;33.95;;;18.95;;
47219;SDS011;32961;51.936;4.788;2023-03-01T02:29:26;28.70;;;19.33;;
47219;SDS011;32961;51.936;4.788;2023-03-01T02:31:56;31.58;;;19.70;;
47219;SDS011;32961;51.936;4.788;2023-03-01T02:34:25;32.50;;;20.02;;
47219;SDS011;32961;51.936;4.788;2023-03-01T02:36:56;33.40;;;19.90;;
47219;SDS011;32961;51.936;4.788;2023-03-01T02:39:28;33.00;;;20.17;;
47219;SDS011;32961;51.936;4.788;2023-03-01T02:41:59;33.53;;;19.50;;
47219;SDS011;32961;51.936;4.788;2023-03-01T02:44:31;30.63;;;18.60;;
47219;SDS011;32961;51.936;4.788;2023-03-01T02:47:00;33.00;;;19.77;;
47219;SDS011;32961;51.936;4.788;2023-03-01T02:49:30;31.10;;;18.75;;
47219;SDS011;32961;51.936;4.788;2023-03-01T02:52:19;34.05;;;19.75;;
47219;SDS011;32961;51.936;4.788;2023-03-01T02:54:56;33.90;;;19.08;;
47219;SDS011;32961;51.936;4.788;2023-03-01T02:57:28;30.33;;;18.80;;
47219;SDS011;32961;51.936;4.788;2023-03-01T03:00:01;34.85;;;19.42;;
47219;SDS011;32961;51.936;4.788;2023-03-01T03:02:34;33.40;;;19.90;;
47219;SDS011;32961;51.936;4.788;2023-03-01T03:05:04;30.15;;;19.15;;
47219;SDS011;32961;51.936;4.788;2023-03-01T03:07:34;30.98;;;20.17;;
47219;SDS011;32961;51.936;4.788;2023-03-01T03:10:05;34.05;;;20.77;;
47219;SDS011;32961;51.936;4.788;2023-03-01T03:15:07;28.08;;;18.70;;
47219;SDS011;32961;51.936;4.788;2023-03-01T03:17:36;28.20;;;18.30;;
47219;SDS011;32961;51.936;4.788;2023-03-01T03:20:04;32.47;;;19.55;;
47219;SDS011;32961;51.936;4.788;2023-03-01T03:22:37;33.30;;;20.50;;
47219;SDS011;32961;51.936;4.788;2023-03-01T03:25:05;31.23;;;18.90;;
47219;SDS011;32961;51.936;4.788;2023-03-01T03:27:36;36.92;;;21.65;;
47219;SDS011;32961;51.936;4.788;2023-03-01T03:30:05;39.70;;;20.48;;
47219;SDS011;32961;51.936;4.788;2023-03-01T03:35:06;29.35;;;18.27;;
47219;SDS011;32961;51.936;4.788;2023-03-01T03:37:36;30.25;;;19.42;;
47219;SDS011;32961;51.936;4.788;2023-03-01T03:40:22;31.35;;;18.85;;
47219;SDS011;32961;51.936;4.788;2023-03-01T03:42:50;28.88;;;18.05;;
47219;SDS011;32961;51.936;4.788;2023-03-01T03:45:19;29.27;;;19.05;;
47219;SDS011;32961;51.936;4.788;2023-03-01T03:47:48;32.20;;;18.17;;
47219;SDS011;32961;51.936;4.788;2023-03-01T03:50:16;28.77;;;18.42;;
47219;SDS011;32961;51.936;4.788;2023-03-01T03:52:45;25.50;;;18.05;;
47219;SDS011;32961;51.936;4.788;2023-03-01T03:55:13;27.02;;;17.02;;
47219;SDS011;32961;51.936;4.788;2023-03-01T03:57:46;30.05;;;18.20;;
47219;SDS011;32961;51.936;4.788;2023-03-01T04:00:18;25.52;;;17.10;;
47219;SDS011;32961;51.936;4.788;2023-03-01T04:02:50;27.85;;;18.00;;
47219;SDS011;32961;51.936;4.788;2023-03-01T04:05:22;28.53;;;18.53;;
47219;SDS011;32961;51.936;4.788;2023-03-01T04:07:50;27.38;;;17.40;;
47219;SDS011;32961;51.936;4.788;2023-03-01T04:10:27;26.17;;;17.83;;
47219;SDS011;32961;51.936;4.788;2023-03-01T04:12:56;25.08;;;17.27;;
47219;SDS011;32961;51.936;4.788;2023-03-01T04:15:26;27.42;;;17.70;;
47219;SDS011;32961;51.936;4.788;2023-03-01T04:17:55;25.50;;;16.63;;
47219;SDS011;32961;51.936;4.788;2023-03-01T04:20:24;27.65;;;17.90;;
47219;SDS011;32961;51.936;4.788;2023-03-01T04:22:57;29.90;;;19.73;;
47219;SDS011;32961;51.936;4.788;2023-03-01T04:25:26;29.02;;;18.73;;
47219;SDS011;32961;51.936;4.788;2023-03-01T04:27:54;32.60;;;18.38;;
47219;SDS011;32961;51.936;4.788;2023-03-01T04:30:21;43.08;;;24.55;;
47219;SDS011;32961;51.936;4.788;2023-03-01T04:32:52;29.30;;;17.45;;
47219;SDS011;32961;51.936;4.788;2023-03-01T04:35:20;26.75;;;17.05;;
47219;SDS011;32961;51.936;4.788;2023-03-01T04:37:49;26.23;;;18.08;;
47219;SDS011;32961;51.936;4.788;2023-03-01T04:40:17;26.58;;;17.52;;
47219;SDS011;32961;51.936;4.788;2023-03-01T04:42:44;31.45;;;18.65;;
47219;SDS011;32961;51.936;4.788;2023-03-01T04:45:13;28.60;;;17.63;;
47219;SDS011;32961;51.936;4.788;2023-03-01T04:47:41;27.38;;;17.27;;
47219;SDS011;32961;51.936;4.788;2023-03-01T04:50:13;25.65;;;16.80;;
47219;SDS011;32961;51.936;4.788;2023-03-01T04:52:42;25.25;;;17.02;;
47219;SDS011;32961;51.936;4.788;2023-03-01T04:55:12;23.65;;;16.48;;
47219;SDS011;32961;51.936;4.788;2023-03-01T04:57:40;31.45;;;20.50;;
47219;SDS011;32961;51.936;4.788;2023-03-01T05:00:09;30.13;;;19.30;;
47219;SDS011;32961;51.936;4.788;2023-03-01T05:02:47;31.88;;;20.77;;
47219;SDS011;32961;51.936;4.788;2023-03-01T05:05:25;30.27;;;20.13;;
47219;SDS011;32961;51.936;4.788;2023-03-01T05:07:56;33.65;;;21.45;;
47219;SDS011;32961;51.936;4.788;2023-03-01T05:10:24;33.25;;;21.55;;
47219;SDS011;32961;51.936;4.788;2023-03-01T05:12:55;34.00;;;20.92;;
47219;SDS011;32961;51.936;4.788;2023-03-01T05:15:24;30.73;;;19.63;;
47219;SDS011;32961;51.936;4.788;2023-03-01T05:17:53;28.08;;;18.65;;
47219;SDS011;32961;51.936;4.788;2023-03-01T05:20:21;33.58;;;19.95;;
47219;SDS011;32961;51.936;4.788;2023-03-01T05:22:52;30.73;;;20.35;;
47219;SDS011;32961;51.936;4.788;2023-03-01T05:25:25;31.55;;;20.67;;
47219;SDS011;32961;51.936;4.788;2023-03-01T05:30:30;27.17;;;18.33;;
47219;SDS011;32961;51.936;4.788;2023-03-01T05:32:59;30.40;;;19.48;;
47219;SDS011;32961;51.936;4.788;2023-03-01T05:35:27;27.25;;;17.23;;
47219;SDS011;32961;51.936;4.788;2023-03-01T05:38:00;28.65;;;18.27;;
47219;SDS011;32961;51.936;4.788;2023-03-01T05:40:27;32.80;;;20.10;;
47219;SDS011;32961;51.936;4.788;2023-03-01T05:42:55;28.42;;;18.75;;
47219;SDS011;32961;51.936;4.788;2023-03-01T05:45:24;28.92;;;19.35;;
47219;SDS011;32961;51.936;4.788;2023-03-01T05:47:53;30.20;;;18.75;;
47219;SDS011;32961;51.936;4.788;2023-03-01T05:50:22;29.05;;;18.27;;
47219;SDS011;32961;51.936;4.788;2023-03-01T05:52:52;28.00;;;18.05;;
47219;SDS011;32961;51.936;4.788;2023-03-01T05:55:25;28.85;;;17.35;;
47219;SDS011;32961;51.936;4.788;2023-03-01T05:57:54;25.88;;;18.10;;
47219;SDS011;32961;51.936;4.788;2023-03-01T06:00:22;26.33;;;17.63;;
47219;SDS011;32961;51.936;4.788;2023-03-01T06:02:50;29.38;;;18.05;;
47219;SDS011;32961;51.936;4.788;2023-03-01T06:05:18;24.23;;;16.23;;
47219;SDS011;32961;51.936;4.788;2023-03-01T06:07:46;29.08;;;16.98;;
47219;SDS011;32961;51.936;4.788;2023-03-01T06:10:14;25.85;;;17.48;;
47219;SDS011;32961;51.936;4.788;2023-03-01T06:12:43;26.50;;;16.77;;
47219;SDS011;32961;51.936;4.788;2023-03-01T06:15:11;25.08;;;16.42;;
47219;SDS011;32961;51.936;4.788;2023-03-01T06:17:41;22.60;;;15.40;;
47219;SDS011;32961;51.936;4.788;2023-03-01T06:20:11;23.02;;;15.85;;
47219;SDS011;32961;51.936;4.788;2023-03-01T06:22:40;29.17;;;16.38;;
47219;SDS011;32961;51.936;4.788;2023-03-01T06:25:09;22.95;;;14.45;;
47219;SDS011;32961;51.936;4.788;2023-03-01T06:27:38;22.15;;;15.43;;
47219;SDS011;32961;51.936;4.788;2023-03-01T06:30:12;22.45;;;15.90;;
47219;SDS011;32961;51.936;4.788;2023-03-01T06:32:42;24.38;;;16.50;;
47219;SDS011;32961;51.936;4.788;2023-03-01T06:35:10;22.90;;;15.23;;
47219;SDS011;32961;51.936;4.788;2023-03-01T06:37:39;25.65;;;17.25;;
47219;SDS011;32961;51.936;4.788;2023-03-01T06:40:08;29.58;;;18.17;;
47219;SDS011;32961;51.936;4.788;2023-03-01T06:42:38;34.17;;;21.63;;
47219;SDS011;32961;51.936;4.788;2023-03-01T06:45:09;26.25;;;17.10;;
47219;SDS011;32961;51.936;4.788;2023-03-01T06:47:38;30.55;;;18.08;;
47219;SDS011;32961;51.936;4.788;2023-03-01T06:50:06;28.70;;;17.80;;
47219;SDS011;32961;51.936;4.788;2023-03-01T06:52:35;27.73;;;17.95;;
47219;SDS011;32961;51.936;4.788;2023-03-01T06:55:03;42.78;;;23.95;;
47219;SDS011;32961;51.936;4.788;2023-03-01T06:57:31;52.53;;;28.35;;
47219;SDS011;32961;51.936;4.788;2023-03-01T06:59:59;37.38;;;22.55;;
47219;SDS011;32961;51.936;4.788;2023-03-01T07:02:28;24.48;;;16.40;;
47219;SDS011;32961;51.936;4.788;2023-03-01T07:04:56;22.85;;;16.38;;
47219;SDS011;32961;51.936;4.788;2023-03-01T07:07:24;23.25;;;16.17;;
47219;SDS011;32961;51.936;4.788;2023-03-01T07:09:51;26.48;;;16.83;;
47219;SDS011;32961;51.936;4.788;2023-03-01T07:12:20;24.77;;;15.65;;
47219;SDS011;32961;51.936;4.788;2023-03-01T07:14:48;28.25;;;18.20;;
47219;SDS011;32961;51.936;4.788;2023-03-01T07:17:16;28.25;;;17.92;;
47219;SDS011;32961;51.936;4.788;2023-03-01T07:19:46;32.83;;;17.60;;
47219;SDS011;32961;51.936;4.788;2023-03-01T07:22:14;31.20;;;16.95;;
47219;SDS011;32961;51.936;4.788;2023-03-01T07:24:42;30.17;;;17.85;;
47219;SDS011;32961;51.936;4.788;2023-03-01T07:27:10;25.52;;;16.40;;
47219;SDS011;32961;51.936;4.788;2023-03-01T07:29:38;26.13;;;16.60;;
47219;SDS011;32961;51.936;4.788;2023-03-01T07:32:06;25.80;;;17.33;;
47219;SDS011;32961;51.936;4.788;2023-03-01T07:34:34;26.25;;;17.75;;
47219;SDS011;32961;51.936;4.788;2023-03-01T07:37:03;29.08;;;18.23;;
47219;SDS011;32961;51.936;4.788;2023-03-01T07:39:31;30.83;;;18.73;;
47219;SDS011;32961;51.936;4.788;2023-03-01T07:41:58;29.70;;;17.45;;
47219;SDS011;32961;51.936;4.788;2023-03-01T07:44:26;31.02;;;17.90;;
47219;SDS011;32961;51.936;4.788;2023-03-01T07:46:54;29.38;;;17.17;;
47219;SDS011;32961;51.936;4.788;2023-03-01T07:49:24;32.70;;;18.65;;
47219;SDS011;32961;51.936;4.788;2023-03-01T07:51:52;30.15;;;18.05;;
47219;SDS011;32961;51.936;4.788;2023-03-01T07:54:21;27.33;;;17.80;;
47219;SDS011;32961;51.936;4.788;2023-03-01T07:56:49;27.73;;;17.73;;
47219;SDS011;32961;51.936;4.788;2023-03-01T07:59:17;29.23;;;18.88;;
47219;SDS011;32961;51.936;4.788;2023-03-01T08:01:45;29.73;;;19.85;;
47219;SDS011;32961;51.936;4.788;2023-03-01T08:04:13;26.67;;;17.30;;
47219;SDS011;32961;51.936;4.788;2023-03-01T08:06:40;26.65;;;17.30;;
47219;SDS011;32961;51.936;4.788;2023-03-01T08:09:08;24.77;;;16.92;;
47219;SDS011;32961;51.936;4.788;2023-03-01T08:11:37;24.77;;;16.40;;
47219;SDS011;32961;51.936;4.788;2023-03-01T08:14:05;27.98;;;16.85;;
47219;SDS011;32961;51.936;4.788;2023-03-01T08:16:33;31.05;;;17.55;;
47219;SDS011;32961;51.936;4.788;2023-03-01T08:19:03;25.95;;;15.95;;
47219;SDS011;32961;51.936;4.788;2023-03-01T08:21:31;24.33;;;14.75;;
47219;SDS011;32961;51.936;4.788;2023-03-01T08:24:01;27.98;;;14.95;;
47219;SDS011;32961;51.936;4.788;2023-03-01T08:26:29;25.98;;;14.50;;
47219;SDS011;32961;51.936;4.788;2023-03-01T08:28:59;19.55;;;13.35;;
47219;SDS011;32961;51.936;4.788;2023-03-01T08:31:27;17.45;;;13.27;;
47219;SDS011;32961;51.936;4.788;2023-03-01T08:33:58;22.30;;;13.30;;
47219;SDS011;32961;51.936;4.788;2023-03-01T08:36:28;20.02;;;14.48;;
47219;SDS011;32961;51.936;4.788;2023-03-01T08:38:58;19.83;;;12.55;;
47219;SDS011;32961;51.936;4.788;2023-03-01T08:41:26;16.95;;;12.38;;
47219;SDS011;32961;51.936;4.788;2023-03-01T08:43:54;17.80;;;11.15;;
47219;SDS011;32961;51.936;4.788;2023-03-01T08:46:27;16.73;;;10.73;;
47219;SDS011;32961;51.936;4.788;2023-03-01T08:48:56;14.50;;;9.50;;
47219;SDS011;32961;51.936;4.788;2023-03-01T08:51:24;12.45;;;8.60;;
47219;SDS011;32961;51.936;4.788;2023-03-01T08:53:53;16.63;;;8.20;;
47219;SDS011;32961;51.936;4.788;2023-03-01T08:56:20;14.35;;;8.43;;
47219;SDS011;32961;51.936;4.788;2023-03-01T08:58:48;14.82;;;8.32;;
47219;SDS011;32961;51.936;4.788;2023-03-01T09:01:17;13.23;;;8.82;;
47219;SDS011;32961;51.936;4.788;2023-03-01T09:03:47;11.25;;;7.68;;
47219;SDS011;32961;51.936;4.788;2023-03-01T09:06:15;15.77;;;8.98;;
47219;SDS011;32961;51.936;4.788;2023-03-01T09:08:45;13.88;;;7.90;;
47219;SDS011;32961;51.936;4.788;2023-03-01T09:11:16;13.45;;;7.95;;
47219;SDS011;32961;51.936;4.788;2023-03-01T09:13:45;16.52;;;7.38;;
47219;SDS011;32961;51.936;4.788;2023-03-01T09:16:15;11.60;;;6.97;;
47219;SDS011;32961;51.936;4.788;2023-03-01T09:18:48;12.52;;;8.25;;
47219;SDS011;32961;51.936;4.788;2023-03-01T09:21:19;10.52;;;6.90;;
47219;SDS011;32961;51.936;4.788;2023-03-01T09:24:05;12.40;;;6.80;;
47219;SDS011;32961;51.936;4.788;2023-03-01T09:26:34;11.68;;;6.80;;
47219;SDS011;32961;51.936;4.788;2023-03-01T09:29:02;12.63;;;6.70;;
47219;SDS011;32961;51.936;4.788;2023-03-01T09:31:30;10.73;;;5.80;;
47219;SDS011;32961;51.936;4.788;2023-03-01T09:33:59;10.23;;;6.10;;
47219;SDS011;32961;51.936;4.788;2023-03-01T09:36:27;10.80;;;6.82;;
47219;SDS011;32961;51.936;4.788;2023-03-01T09:38:56;12.93;;;5.72;;
47219;SDS011;32961;51.936;4.788;2023-03-01T09:41:36;11.23;;;5.90;;
47219;SDS011;32961;51.936;4.788;2023-03-01T09:44:13;13.93;;;5.80;;
47219;SDS011;32961;51.936;4.788;2023-03-01T09:46:48;10.35;;;5.90;;
47219;SDS011;32961;51.936;4.788;2023-03-01T09:49:18;12.65;;;5.78;;
47219;SDS011;32961;51.936;4.788;2023-03-01T09:51:53;9.38;;;5.75;;
47219;SDS011;32961;51.936;4.788;2023-03-01T09:54:24;7.15;;;5.25;;
47219;SDS011;32961;51.936;4.788;2023-03-01T09:57:04;8.25;;;5.18;;
47219;SDS011;32961;51.936;4.788;2023-03-01T09:59:41;10.75;;;5.68;;
47219;SDS011;32961;51.936;4.788;2023-03-01T10:02:21;8.20;;;4.93;;
47219;SDS011;32961;51.936;4.788;2023-03-01T10:04:57;11.38;;;6.20;;
47219;SDS011;32961;51.936;4.788;2023-03-01T10:07:34;8.00;;;5.00;;
47219;SDS011;32961;51.936;4.788;2023-03-01T10:10:14;9.20;;;5.03;;
47219;SDS011;32961;51.936;4.788;2023-03-01T10:12:48;8.98;;;5.13;;
47219;SDS011;32961;51.936;4.788;2023-03-01T10:15:18;7.43;;;5.18;;
47219;SDS011;32961;51.936;4.788;2023-03-01T10:17:50;6.15;;;4.22;;
47219;SDS011;32961;51.936;4.788;2023-03-01T10:20:22;5.97;;;3.88;;
47219;SDS011;32961;51.936;4.788;2023-03-01T10:22:51;6.32;;;3.55;;
47219;SDS011;32961;51.936;4.788;2023-03-01T10:25:30;6.28;;;3.20;;
47219;SDS011;32961;51.936;4.788;2023-03-01T10:28:10;9.38;;;4.10;;
47219;SDS011;32961;51.936;4.788;2023-03-01T10:30:43;7.97;;;3.75;;
47219;SDS011;32961;51.936;4.788;2023-03-01T10:33:14;12.77;;;4.00;;
47219;SDS011;32961;51.936;4.788;2023-03-01T10:35:47;5.57;;;2.75;;
47219;SDS011;32961;51.936;4.788;2023-03-01T10:38:15;7.60;;;3.58;;
47219;SDS011;32961;51.936;4.788;2023-03-01T10:40:50;6.53;;;4.10;;
47219;SDS011;32961;51.936;4.788;2023-03-01T10:43:20;7.80;;;4.15;;
47219;SDS011;32961;51.936;4.788;2023-03-01T10:45:49;4.70;;;3.20;;
47219;SDS011;32961;51.936;4.788;2023-03-01T10:48:19;8.65;;;3.40;;
47219;SDS011;32961;51.936;4.788;2023-03-01T10:51:04;8.43;;;3.35;;
47219;SDS011;32961;51.936;4.788;2023-03-01T10:53:34;10.43;;;3.42;;
47219;SDS011;32961;51.936;4.788;2023-03-01T10:56:05;6.43;;;4.07;;
47219;SDS011;32961;51.936;4.788;2023-03-01T10:58:35;7.15;;;4.00;;
47219;SDS011;32961;51.936;4.788;2023-03-01T11:01:06;6.05;;;3.40;;
47219;SDS011;32961;51.936;4.788;2023-03-01T11:04:02;6.47;;;3.63;;
47219;SDS011;32961;51.936;4.788;2023-03-01T11:06:38;5.65;;;3.63;;
47219;SDS011;32961;51.936;4.788;2023-03-01T11:09:14;9.35;;;4.30;;
47219;SDS011;32961;51.936;4.788;2023-03-01T11:11:43;4.47;;;3.30;;
47219;SDS011;32961;51.936;4.788;2023-03-01T11:14:13;6.28;;;3.63;;
47219;SDS011;32961;51.936;4.788;2023-03-01T11:16:59;7.00;;;4.00;;
47219;SDS011;32961;51.936;4.788;2023-03-01T11:19:29;7.43;;;3.67;;
47219;SDS011;32961;51.936;4.788;2023-03-01T11:21:59;6.97;;;3.78;;
47219;SDS011;32961;51.936;4.788;2023-03-01T11:24:33;7.13;;;3.80;;
47219;SDS011;32961;51.936;4.788;2023-03-01T11:27:12;5.85;;;3.63;;
47219;SDS011;32961;51.936;4.788;2023-03-01T11:29:44;7.25;;;3.63;;
47219;SDS011;32961;51.936;4.788;2023-03-01T11:32:17;6.03;;;4.18;;
47219;SDS011;32961;51.936;4.788;2023-03-01T11:34:50;9.00;;;4.45;;
47219;SDS011;32961;51.936;4.788;2023-03-01T11:37:28;8.73;;;3.63;;
47219;SDS011;32961;51.936;4.788;2023-03-01T11:40:10;9.75;;;5.72;;
47219;SDS011;32961;51.936;4.788;2023-03-01T11:42:45;5.25;;;3.55;;
47219;SDS011;32961;51.936;4.788;2023-03-01T11:45:19;6.28;;;3.25;;
47219;SDS011;32961;51.936;4.788;2023-03-01T11:48:01;4.57;;;3.22;;
47219;SDS011;32961;51.936;4.788;2023-03-01T11:50:42;5.35;;;3.45;;
47219;SDS011;32961;51.936;4.788;2023-03-01T11:53:28;6.70;;;3.58;;
47219;SDS011;32961;51.936;4.788;2023-03-01T11:56:14;5.70;;;3.00;;
47219;SDS011;32961;51.936;4.788;2023-03-01T11:58:54;6.57;;;2.97;;
47219;SDS011;32961;51.936;4.788;2023-03-01T12:01:55;7.78;;;3.13;;
47219;SDS011;32961;51.936;4.788;2023-03-01T12:04:48;4.95;;;2.88;;
47219;SDS011;32961;51.936;4.788;2023-03-01T12:07:26;5.07;;;3.20;;
47219;SDS011;32961;51.936;4.788;2023-03-01T12:10:06;6.13;;;3.70;;
47219;SDS011;32961;51.936;4.788;2023-03-01T12:12:52;7.50;;;4.40;;
47219;SDS011;32961;51.936;4.788;2023-03-01T12:15:33;6.75;;;3.85;;
47219;SDS011;32961;51.936;4.788;2023-03-01T12:18:26;8.27;;;4.10;;
47219;SDS011;32961;51.936;4.788;2023-03-01T12:21:10;5.90;;;3.30;;
47219;SDS011;32961;51.936;4.788;2023-03-01T12:23:53;7.55;;;3.58;;
47219;SDS011;32961;51.936;4.788;2023-03-01T12:26:33;9.18;;;3.65;;
47219;SDS011;32961;51.936;4.788;2023-03-01T12:34:53;6.85;;;4.05;;
47219;SDS011;32961;51.936;4.788;2023-03-01T12:37:33;8.68;;;4.95;;
47219;SDS011;32961;51.936;4.788;2023-03-01T12:43:17;9.45;;;5.50;;
47219;SDS011;32961;51.936;4.788;2023-03-01T12:46:01;6.93;;;4.18;;
47219;SDS011;32961;51.936;4.788;2023-03-01T12:48:40;5.53;;;3.65;;
47219;SDS011;32961;51.936;4.788;2023-03-01T12:51:15;5.72;;;3.72;;
47219;SDS011;32961;51.936;4.788;2023-03-01T12:53:48;11.13;;;4.30;;
47219;SDS011;32961;51.936;4.788;2023-03-01T12:56:19;10.23;;;4.80;;
47219;SDS011;32961;51.936;4.788;2023-03-01T12:58:54;7.63;;;3.92;;
47219;SDS011;32961;51.936;4.788;2023-03-01T13:01:38;6.78;;;3.97;;
47219;SDS011;32961;51.936;4.788;2023-03-01T13:04:14;8.40;;;4.15;;
47219;SDS011;32961;51.936;4.788;2023-03-01T13:07:19;7.50;;;4.07;;
47219;SDS011;32961;51.936;4.788;2023-03-01T13:09:54;10.45;;;4.57;;
47219;SDS011;32961;51.936;4.788;2023-03-01T13:12:50;21.92;;;3.60;;
47219;SDS011;32961;51.936;4.788;2023-03-01T13:15:34;6.72;;;3.80;;
47219;SDS011;32961;51.936;4.788;2023-03-01T13:18:04;6.97;;;3.40;;
47219;SDS011;32961;51.936;4.788;2023-03-01T13:20:57;7.53;;;3.40;;
47219;SDS011;32961;51.936;4.788;2023-03-01T13:23:28;5.43;;;3.13;;
47219;SDS011;32961;51.936;4.788;2023-03-01T13:26:07;4.53;;;2.80;;
47219;SDS011;32961;51.936;4.788;2023-03-01T13:28:39;6.63;;;2.88;;
47219;SDS011;32961;51.936;4.788;2023-03-01T13:37:29;4.43;;;2.70;;
47219;SDS011;32961;51.936;4.788;2023-03-01T13:40:00;4.47;;;2.72;;
47219;SDS011;32961;51.936;4.788;2023-03-01T13:42:36;3.92;;;2.50;;
47219;SDS011;32961;51.936;4.788;2023-03-01T13:45:17;7.25;;;2.88;;
47219;SDS011;32961;51.936;4.788;2023-03-01T13:47:49;5.22;;;2.75;;
47219;SDS011;32961;51.936;4.788;2023-03-01T13:50:22;4.43;;;2.97;;
47219;SDS011;32961;51.936;4.788;2023-03-01T13:52:53;5.18;;;3.10;;
47219;SDS011;32961;51.936;4.788;2023-03-01T13:55:27;6.07;;;3.00;;
47219;SDS011;32961;51.936;4.788;2023-03-01T13:58:04;7.13;;;3.17;;
47219;SDS011;32961;51.936;4.788;2023-03-01T14:00:42;7.18;;;3.20;;
47219;SDS011;32961;51.936;4.788;2023-03-01T14:03:11;5.65;;;2.85;;
47219;SDS011;32961;51.936;4.788;2023-03-01T14:05:43;3.90;;;2.78;;
47219;SDS011;32961;51.936;4.788;2023-03-01T14:08:39;5.57;;;3.30;;
47219;SDS011;32961;51.936;4.788;2023-03-01T14:14:14;4.38;;;3.00;;
47219;SDS011;32961;51.936;4.788;2023-03-01T14:16:54;3.58;;;2.75;;
47219;SDS011;32961;51.936;4.788;2023-03-01T14:19:28;3.67;;;2.90;;
47219;SDS011;32961;51.936;4.788;2023-03-01T14:22:02;4.88;;;3.58;;
47219;SDS011;32961;51.936;4.788;2023-03-01T14:24:40;6.38;;;3.10;;
47219;SDS011;32961;51.936;4.788;2023-03-01T14:27:13;8.70;;;3.40;;
47219;SDS011;32961;51.936;4.788;2023-03-01T14:29:42;5.47;;;3.30;;
47219;SDS011;32961;51.936;4.788;2023-03-01T14:32:11;4.50;;;3.10;;
47219;SDS011;32961;51.936;4.788;2023-03-01T14:34:45;4.63;;;3.10;;
47219;SDS011;32961;51.936;4.788;2023-03-01T14:37:20;7.57;;;3.53;;
47219;SDS011;32961;51.936;4.788;2023-03-01T14:39:50;6.43;;;3.20;;
47219;SDS011;32961;51.936;4.788;2023-03-01T14:42:18;3.95;;;2.83;;
47219;SDS011;32961;51.936;4.788;2023-03-01T14:44:49;7.75;;;3.50;;
47219;SDS011;32961;51.936;4.788;2023-03-01T14:47:22;9.63;;;3.35;;
47219;SDS011;32961;51.936;4.788;2023-03-01T14:49:56;5.47;;;3.03;;
47219;SDS011;32961;51.936;4.788;2023-03-01T14:52:30;8.57;;;3.10;;
47219;SDS011;32961;51.936;4.788;2023-03-01T14:55:02;7.20;;;2.90;;
47219;SDS011;32961;51.936;4.788;2023-03-01T14:57:32;5.63;;;3.33;;
47219;SDS011;32961;51.936;4.788;2023-03-01T15:00:01;4.22;;;3.00;;
47219;SDS011;32961;51.936;4.788;2023-03-01T15:02:31;5.38;;;3.10;;
47219;SDS011;32961;51.936;4.788;2023-03-01T15:05:01;7.85;;;3.10;;
47219;SDS011;32961;51.936;4.788;2023-03-01T15:07:36;8.57;;;3.10;;
47219;SDS011;32961;51.936;4.788;2023-03-01T15:10:07;7.38;;;3.42;;
47219;SDS011;32961;51.936;4.788;2023-03-01T15:12:46;5.75;;;3.15;;
47219;SDS011;32961;51.936;4.788;2023-03-01T15:18:13;6.20;;;3.58;;
47219;SDS011;32961;51.936;4.788;2023-03-01T15:20:44;8.30;;;4.03;;
47219;SDS011;32961;51.936;4.788;2023-03-01T15:23:24;5.10;;;3.20;;
47219;SDS011;32961;51.936;4.788;2023-03-01T15:25:54;5.25;;;2.90;;
47219;SDS011;32961;51.936;4.788;2023-03-01T15:28:24;4.55;;;3.25;;